Time;durP1;ratioP1;P1;durP2;ratioP2;P2;SDS_P1;SDS_P2;PMS_P1;PMS_P2;Temp;Humidity;BMP_temperature;BMP_pressure;BME280_temperature;BME280_humidity;BME280_pressure;Samples;Min_cycle;Max_cycle;Signal;HPM_P1;HPM_P2
2023/07/14 00:01:23;;;;;;;9.68;8.98;;;;;;;;;;5045046;28;20500;-74
2023/07/14 00:03:49;;;;;;;10.27;9.52;;;;;;;;;;5045108;28;20040;-74
2023/07/14 00:06:16;;;;;;;9.68;8.98;;;;;;;;;;5045400;28;20028;-74
2023/07/14 00:08:42;;;;;;;10.80;9.32;;;;;;;;;;5043377;28;20128;-74
2023/07/14 00:11:13;;;;;;;10.75;9.70;;;;;;;;;;5045140;28;20547;-74
2023/07/14 00:13:39;;;;;;;9.77;9.07;;;;;;;;;;5044953;28;20037;-74
2023/07/14 00:16:16;;;;;;;10.65;9.80;;;;;;;;;;5043720;28;20051;-74
2023/07/14 00:18:42;;;;;;;11.13;10.23;;;;;;;;;;5041045;28;20040;-74
2023/07/14 00:21:17;;;;;;;10.70;9.90;;;;;;;;;;5044871;28;20476;-74
2023/07/14 00:23:44;;;;;;;11.20;10.27;;;;;;;;;;5041528;28;20119;-74
2023/07/14 00:26:15;;;;;;;10.45;9.50;;;;;;;;;;5039961;28;20048;-74
2023/07/14 00:28:42;;;;;;;10.75;9.77;;;;;;;;;;5043121;28;20036;-74
2023/07/14 00:31:16;;;;;;;10.60;9.75;;;;;;;;;;5044997;28;20033;-74
2023/07/14 00:33:43;;;;;;;9.98;9.30;;;;;;;;;;5041804;28;20060;-74
2023/07/14 00:36:12;;;;;;;11.10;10.30;;;;;;;;;;5044334;28;20123;-74
2023/07/14 00:38:38;;;;;;;10.88;9.88;;;;;;;;;;5047112;28;20468;-74
2023/07/14 00:41:10;;;;;;;10.70;9.85;;;;;;;;;;5047849;28;20037;-74
2023/07/14 00:43:36;;;;;;;11.10;10.07;;;;;;;;;;5045764;28;20076;-74
2023/07/14 00:46:03;;;;;;;10.05;9.25;;;;;;;;;;5047628;28;20513;-74
2023/07/14 00:48:32;;;;;;;9.93;9.02;;;;;;;;;;5047987;28;20029;-74
2023/07/14 00:51:14;;;;;;;10.48;9.50;;;;;;;;;;5048515;28;20044;-74
2023/07/14 00:53:43;;;;;;;10.68;9.65;;;;;;;;;;5045562;28;20044;-74
2023/07/14 00:56:09;;;;;;;10.70;10.00;;;;;;;;;;5030758;28;20044;-74
2023/07/14 00:58:36;;;;;;;11.15;10.05;;;;;;;;;;5046778;28;20041;-74
2023/07/14 01:01:10;;;;;;;10.73;9.55;;;;;;;;;;5048305;28;20037;-74
2023/07/14 01:03:42;;;;;;;11.40;10.60;;;;;;;;;;5063055;28;20033;-74
2023/07/14 01:06:21;;;;;;;10.85;9.98;;;;;;;;;;5043399;28;20037;-74
2023/07/14 01:08:54;;;;;;;11.15;10.35;;;;;;;;;;5043503;28;20056;-74
2023/07/14 01:11:31;;;;;;;10.73;9.77;;;;;;;;;;5045143;28;20037;-74
2023/07/14 01:14:00;;;;;;;11.25;10.20;;;;;;;;;;5046819;28;20396;-74
2023/07/14 01:16:29;;;;;;;11.60;10.68;;;;;;;;;;5048069;28;20507;-74
2023/07/14 01:18:56;;;;;;;;;;;;;;;;;;5044782;28;20366;-74
2023/07/14 01:21:21;;;;;;;12.13;11.10;;;;;;;;;;5046425;28;20116;-74
2023/07/14 01:23:51;;;;;;;11.77;10.93;;;;;;;;;;5047863;28;20094;-74
2023/07/14 01:26:27;;;;;;;11.15;10.25;;;;;;;;;;5047878;28;20036;-74
2023/07/14 01:28:54;;;;;;;11.25;10.30;;;;;;;;;;5045167;28;20329;-74
2023/07/14 01:31:21;;;;;;;11.30;10.32;;;;;;;;;;5046093;28;20435;-74
2023/07/14 01:33:52;;;;;;;11.18;10.07;;;;;;;;;;5045599;28;20037;-74
2023/07/14 01:36:20;;;;;;;11.38;10.65;;;;;;;;;;5060473;28;20117;-74
2023/07/14 01:38:46;;;;;;;11.45;10.48;;;;;;;;;;5044210;28;20056;-74
2023/07/14 01:41:12;;;;;;;10.82;10.13;;;;;;;;;;5047524;28;20088;-73
2023/07/14 01:43:40;;;;;;;11.30;10.43;;;;;;;;;;5046449;28;20047;-74
2023/07/14 01:46:12;;;;;;;10.57;9.68;;;;;;;;;;5045449;28;20091;-74
2023/07/14 01:49:01;;;;;;;11.10;10.20;;;;;;;;;;5044502;28;20045;-73
2023/07/14 01:51:30;;;;;;;10.70;10.00;;;;;;;;;;5045925;28;20044;-73
2023/07/14 01:54:14;;;;;;;11.10;10.00;;;;;;;;;;5044806;28;20045;-74
2023/07/14 01:56:41;;;;;;;11.65;10.57;;;;;;;;;;5046975;28;20033;-74
2023/07/14 01:59:41;;;;;;;11.27;10.48;;;;;;;;;;5047247;28;20272;-73
2023/07/14 02:02:18;;;;;;;11.50;10.60;;;;;;;;;;5006988;28;20033;-73
2023/07/14 02:04:46;;;;;;;11.43;10.40;;;;;;;;;;5020441;28;20588;-73
2023/07/14 02:07:13;;;;;;;11.52;10.65;;;;;;;;;;5010636;28;20044;-73
2023/07/14 02:09:40;;;;;;;10.95;10.23;;;;;;;;;;5012021;28;20041;-74
2023/07/14 02:12:11;;;;;;;10.65;9.85;;;;;;;;;;5022842;28;20080;-73
2023/07/14 02:14:42;;;;;;;10.85;9.93;;;;;;;;;;5018474;28;20419;-73
2023/07/14 02:17:25;;;;;;;12.10;10.98;;;;;;;;;;5026480;28;20044;-73
2023/07/14 02:19:51;;;;;;;12.25;11.13;;;;;;;;;;5020049;28;20049;-73
2023/07/14 02:22:18;;;;;;;11.68;10.65;;;;;;;;;;5009949;28;20227;-73
2023/07/14 02:24:46;;;;;;;10.75;9.95;;;;;;;;;;5010151;28;20473;-73
2023/07/14 02:27:12;;;;;;;11.02;10.15;;;;;;;;;;5012818;28;20037;-73
2023/07/14 02:29:38;;;;;;;11.23;10.43;;;;;;;;;;5013664;28;20047;-73
2023/07/14 02:32:03;;;;;;;11.70;10.52;;;;;;;;;;5024373;28;20135;-73
2023/07/14 02:34:36;;;;;;;11.10;10.13;;;;;;;;;;5009844;28;20099;-73
2023/07/14 02:37:04;;;;;;;11.15;10.32;;;;;;;;;;5009750;28;20128;-73
2023/07/14 02:39:37;;;;;;;12.18;10.98;;;;;;;;;;5043524;28;20041;-73
2023/07/14 02:42:03;;;;;;;12.35;11.35;;;;;;;;;;5046061;28;20029;-73
2023/07/14 02:44:36;;;;;;;12.40;11.07;;;;;;;;;;5046374;28;20041;-73
2023/07/14 02:47:10;;;;;;;10.60;9.70;;;;;;;;;;5043987;28;20033;-73
2023/07/14 02:49:36;;;;;;;11.10;10.20;;;;;;;;;;5056994;28;20048;-73
2023/07/14 02:52:02;;;;;;;11.20;10.30;;;;;;;;;;5046241;28;20040;-73
2023/07/14 02:54:28;;;;;;;15.65;10.25;;;;;;;;;;5042448;28;20044;-73
2023/07/14 02:56:54;;;;;;;12.95;10.73;;;;;;;;;;5044775;28;20028;-73
2023/07/14 02:59:20;;;;;;;11.20;10.30;;;;;;;;;;5044102;28;20115;-75
2023/07/14 03:01:45;;;;;;;11.25;10.10;;;;;;;;;;5045963;28;20134;-76
2023/07/14 03:04:11;;;;;;;11.68;10.70;;;;;;;;;;5043202;28;20112;-74
2023/07/14 03:06:36;;;;;;;10.90;10.18;;;;;;;;;;5045806;28;20075;-74
2023/07/14 03:09:02;;;;;;;11.18;10.18;;;;;;;;;;5044147;28;20448;-74
2023/07/14 03:11:28;;;;;;;11.05;9.95;;;;;;;;;;5026370;28;20336;-74
2023/07/14 03:13:54;;;;;;;11.02;10.10;;;;;;;;;;5045760;28;20119;-73
2023/07/14 03:16:20;;;;;;;10.77;10.07;;;;;;;;;;5044316;28;20388;-73
2023/07/14 03:18:46;;;;;;;11.23;10.32;;;;;;;;;;5045216;28;20115;-72
2023/07/14 03:21:12;;;;;;;11.00;9.98;;;;;;;;;;5044143;28;20120;-72
2023/07/14 03:23:38;;;;;;;12.48;11.35;;;;;;;;;;5027614;28;20041;-72
2023/07/14 03:26:06;;;;;;;11.95;10.65;;;;;;;;;;5043791;28;20041;-72
2023/07/14 03:28:33;;;;;;;11.05;10.15;;;;;;;;;;5064586;28;20017;-72
2023/07/14 03:31:01;;;;;;;11.85;10.85;;;;;;;;;;5046245;28;20057;-72
2023/07/14 03:33:33;;;;;;;11.25;10.35;;;;;;;;;;5026528;28;20556;-72
2023/07/14 03:36:11;;;;;;;11.80;10.85;;;;;;;;;;5043399;28;20041;-71
2023/07/14 03:38:42;;;;;;;12.23;11.05;;;;;;;;;;5043072;28;20040;-72
2023/07/14 03:41:09;;;;;;;11.40;10.23;;;;;;;;;;5043655;28;20048;-72
2023/07/14 03:43:35;;;;;;;10.88;9.93;;;;;;;;;;5042505;28;20051;-72
2023/07/14 03:46:00;;;;;;;10.70;10.00;;;;;;;;;;5043983;28;20033;-72
2023/07/14 03:48:26;;;;;;;13.57;10.18;;;;;;;;;;5043579;28;20388;-72
2023/07/14 03:50:52;;;;;;;11.20;10.30;;;;;;;;;;5043604;28;20043;-72
2023/07/14 03:53:17;;;;;;;11.07;10.02;;;;;;;;;;5043940;28;20091;-72
2023/07/14 03:55:46;;;;;;;11.43;9.85;;;;;;;;;;5043897;28;20056;-78
2023/07/14 03:58:12;;;;;;;12.18;11.18;;;;;;;;;;5044806;28;20039;-78
2023/07/14 04:00:37;;;;;;;11.30;10.57;;;;;;;;;;5047283;28;20041;-79
2023/07/14 04:03:04;;;;;;;11.40;10.40;;;;;;;;;;5045563;28;20052;-79
2023/07/14 04:05:30;;;;;;;11.98;11.10;;;;;;;;;;5047951;28;20335;-78
2023/07/14 04:07:57;;;;;;;12.27;11.27;;;;;;;;;;5011348;28;20416;-73
2023/07/14 04:10:22;;;;;;;11.63;10.73;;;;;;;;;;5060495;28;20037;-72
2023/07/14 04:12:48;;;;;;;11.98;11.07;;;;;;;;;;5047531;28;20045;-71
2023/07/14 04:15:14;;;;;;;12.27;11.18;;;;;;;;;;5048071;28;20048;-70
2023/07/14 04:17:40;;;;;;;12.05;11.20;;;;;;;;;;5046084;28;20041;-70
2023/07/14 04:20:06;;;;;;;11.90;11.05;;;;;;;;;;5048838;28;20590;-70
2023/07/14 04:22:33;;;;;;;11.88;10.95;;;;;;;;;;5064206;28;20025;-70
2023/07/14 04:24:58;;;;;;;11.57;10.68;;;;;;;;;;5060640;28;20048;-70
2023/07/14 04:27:25;;;;;;;11.77;10.90;;;;;;;;;;5049484;28;20055;-70
2023/07/14 04:29:51;;;;;;;13.15;11.82;;;;;;;;;;5046303;28;20082;-70
2023/07/14 04:32:16;;;;;;;11.77;10.80;;;;;;;;;;5046595;28;20675;-70
2023/07/14 04:34:42;;;;;;;11.88;11.00;;;;;;;;;;5048138;28;20405;-70
2023/07/14 04:37:08;;;;;;;12.38;11.32;;;;;;;;;;5048422;28;20036;-70
2023/07/14 04:39:35;;;;;;;12.18;11.23;;;;;;;;;;5044705;28;20040;-70
2023/07/14 04:42:00;;;;;;;12.20;11.25;;;;;;;;;;5045799;28;20033;-70
2023/07/14 04:44:26;;;;;;;12.63;11.45;;;;;;;;;;5048667;28;20083;-70
2023/07/14 04:46:52;;;;;;;12.10;10.95;;;;;;;;;;5048481;28;20029;-70
2023/07/14 04:49:17;;;;;;;11.32;10.43;;;;;;;;;;5047279;28;20595;-70
2023/07/14 04:51:43;;;;;;;12.30;11.13;;;;;;;;;;5048750;28;20081;-70
2023/07/14 04:54:10;;;;;;;12.40;11.40;;;;;;;;;;5048639;28;20071;-70
2023/07/14 04:56:37;;;;;;;12.25;11.38;;;;;;;;;;5046657;28;20335;-70
2023/07/14 04:59:05;;;;;;;12.93;11.93;;;;;;;;;;5048289;28;20036;-70
2023/07/14 05:01:31;;;;;;;12.20;11.20;;;;;;;;;;5047983;28;20051;-70
2023/07/14 05:03:57;;;;;;;12.05;11.15;;;;;;;;;;5048219;28;20501;-70
2023/07/14 05:06:23;;;;;;;11.80;10.82;;;;;;;;;;5045882;28;20040;-70
2023/07/14 05:08:48;;;;;;;12.27;11.20;;;;;;;;;;5048545;28;20041;-70
2023/07/14 05:11:14;;;;;;;12.50;11.40;;;;;;;;;;5048497;28;20334;-70
2023/07/14 05:13:40;;;;;;;12.52;11.48;;;;;;;;;;5047396;28;20033;-70
2023/07/14 05:16:06;;;;;;;11.82;11.00;;;;;;;;;;5047899;28;20289;-70
2023/07/14 05:18:32;;;;;;;12.50;11.25;;;;;;;;;;5042445;28;20043;-70
2023/07/14 05:21:00;;;;;;;12.55;11.45;;;;;;;;;;5044167;28;20033;-70
2023/07/14 05:23:27;;;;;;;11.57;10.68;;;;;;;;;;5047798;28;20044;-70
2023/07/14 05:25:54;;;;;;;12.35;11.23;;;;;;;;;;5047842;28;20029;-70
2023/07/14 05:28:20;;;;;;;12.02;11.15;;;;;;;;;;5046493;28;20033;-70
2023/07/14 05:30:45;;;;;;;11.52;10.70;;;;;;;;;;5046842;28;20207;-70
2023/07/14 05:33:12;;;;;;;12.45;11.20;;;;;;;;;;5047896;28;20047;-70
2023/07/14 05:35:39;;;;;;;12.00;10.85;;;;;;;;;;5040287;28;20033;-70
2023/07/14 05:38:05;;;;;;;12.32;11.35;;;;;;;;;;5047813;28;20136;-73
2023/07/14 05:40:31;;;;;;;12.48;11.30;;;;;;;;;;5047219;28;20063;-72
2023/07/14 05:42:58;;;;;;;11.65;10.65;;;;;;;;;;5045792;28;20037;-72
2023/07/14 05:45:24;;;;;;;11.63;10.50;;;;;;;;;;5047282;28;20021;-72
2023/07/14 05:47:50;;;;;;;11.32;10.38;;;;;;;;;;5047685;28;20039;-70
2023/07/14 05:50:16;;;;;;;12.25;11.20;;;;;;;;;;5047404;28;20391;-70
2023/07/14 05:52:42;;;;;;;12.23;11.07;;;;;;;;;;5046072;28;20127;-70
2023/07/14 05:55:09;;;;;;;12.80;11.55;;;;;;;;;;5047306;28;20128;-70
2023/07/14 05:57:37;;;;;;;11.50;10.60;;;;;;;;;;5047790;28;20429;-70
2023/07/14 06:00:13;;;;;;;11.63;10.50;;;;;;;;;;5045467;28;20044;-71
2023/07/14 06:02:42;;;;;;;11.77;10.63;;;;;;;;;;5046137;28;20458;-71
2023/07/14 06:05:08;;;;;;;12.48;11.20;;;;;;;;;;5047568;28;20113;-77
2023/07/14 06:07:34;;;;;;;11.50;10.50;;;;;;;;;;5046365;28;20068;-75
2023/07/14 06:10:00;;;;;;;11.80;10.90;;;;;;;;;;5047449;28;20037;-77
2023/07/14 06:12:26;;;;;;;11.95;10.80;;;;;;;;;;5046859;28;20028;-72
2023/07/14 06:14:51;;;;;;;12.02;11.00;;;;;;;;;;5047448;28;20033;-73
2023/07/14 06:17:17;;;;;;;11.73;10.73;;;;;;;;;;5045112;28;20045;-73
2023/07/14 06:19:43;;;;;;;11.90;11.00;;;;;;;;;;5047377;28;20025;-73
2023/07/14 06:22:08;;;;;;;12.35;11.30;;;;;;;;;;5046968;28;20037;-73
2023/07/14 06:24:37;;;;;;;12.18;11.07;;;;;;;;;;5045444;28;20139;-73
2023/07/14 06:27:05;;;;;;;11.43;10.55;;;;;;;;;;5046630;28;20076;-72
2023/07/14 06:29:32;;;;;;;12.13;11.35;;;;;;;;;;5046554;28;20495;-73
2023/07/14 06:31:58;;;;;;;11.82;10.95;;;;;;;;;;5046634;28;20029;-72
2023/07/14 06:34:24;;;;;;;11.75;10.60;;;;;;;;;;5044672;28;20055;-72
2023/07/14 06:36:50;;;;;;;10.75;9.95;;;;;;;;;;5047138;28;20044;-73
2023/07/14 06:39:17;;;;;;;11.40;10.40;;;;;;;;;;5046428;28;20277;-73
2023/07/14 06:41:43;;;;;;;13.93;10.52;;;;;;;;;;5045324;28;20128;-72
2023/07/14 06:44:11;;;;;;;11.55;10.38;;;;;;;;;;5045338;28;20040;-72
2023/07/14 06:46:36;;;;;;;11.25;10.40;;;;;;;;;;5049138;28;20036;-72
2023/07/14 06:49:03;;;;;;;11.70;10.27;;;;;;;;;;5044791;28;20033;-72
2023/07/14 06:51:29;;;;;;;11.30;10.50;;;;;;;;;;5046664;28;20104;-72
2023/07/14 06:53:55;;;;;;;10.45;9.57;;;;;;;;;;5046753;28;20037;-72
2023/07/14 06:56:21;;;;;;;10.18;9.43;;;;;;;;;;5046267;28;20040;-72
2023/07/14 06:58:46;;;;;;;10.48;9.20;;;;;;;;;;5044542;28;20068;-72
2023/07/14 07:01:12;;;;;;;10.05;9.35;;;;;;;;;;5046785;28;20029;-72
2023/07/14 07:03:37;;;;;;;10.15;9.25;;;;;;;;;;5046405;28;20033;-72
2023/07/14 07:06:03;;;;;;;10.32;9.27;;;;;;;;;;5045507;28;20035;-73
2023/07/14 07:08:29;;;;;;;10.68;9.80;;;;;;;;;;5046070;28;20432;-72
2023/07/14 07:10:55;;;;;;;10.48;9.52;;;;;;;;;;5045140;28;20040;-72
2023/07/14 07:13:21;;;;;;;9.95;9.15;;;;;;;;;;5045635;28;20055;-72
2023/07/14 07:15:46;;;;;;;10.75;9.63;;;;;;;;;;5044001;28;20049;-73
2023/07/14 07:18:12;;;;;;;9.70;9.00;;;;;;;;;;5046192;28;20354;-73
2023/07/14 07:20:41;;;;;;;10.45;9.50;;;;;;;;;;5046199;28;20043;-72
2023/07/14 07:23:07;;;;;;;9.45;8.85;;;;;;;;;;5046468;28;20098;-72
2023/07/14 07:25:33;;;;;;;9.48;8.57;;;;;;;;;;5044669;28;20025;-72
2023/07/14 07:27:59;;;;;;;9.60;8.70;;;;;;;;;;5045892;28;20033;-72
2023/07/14 07:30:25;;;;;;;9.73;8.88;;;;;;;;;;5047092;28;20446;-72
2023/07/14 07:32:51;;;;;;;10.95;8.27;;;;;;;;;;5044746;28;20028;-72
2023/07/14 07:35:17;;;;;;;9.65;8.48;;;;;;;;;;5044314;28;20035;-72
2023/07/14 07:37:42;;;;;;;9.90;9.10;;;;;;;;;;5045903;28;20069;-72
2023/07/14 07:40:09;;;;;;;9.65;8.77;;;;;;;;;;5045827;28;20039;-73
2023/07/14 07:42:35;;;;;;;10.07;9.15;;;;;;;;;;5042572;28;20408;-72
2023/07/14 07:45:01;;;;;;;9.75;8.95;;;;;;;;;;5045225;28;20484;-73
2023/07/14 07:47:28;;;;;;;9.07;8.27;;;;;;;;;;5045262;28;20037;-72
2023/07/14 07:49:53;;;;;;;9.20;8.45;;;;;;;;;;5043012;28;20052;-72
2023/07/14 07:52:20;;;;;;;9.38;8.57;;;;;;;;;;5045480;28;20037;-73
2023/07/14 07:54:46;;;;;;;8.90;8.30;;;;;;;;;;5045360;28;20493;-73
2023/07/14 07:57:11;;;;;;;8.70;8.02;;;;;;;;;;5045620;28;20041;-72
2023/07/14 07:59:38;;;;;;;9.15;8.45;;;;;;;;;;5043876;28;20036;-72
2023/07/14 08:02:04;;;;;;;8.30;7.70;;;;;;;;;;5044318;28;20041;-72
2023/07/14 08:04:30;;;;;;;8.73;8.02;;;;;;;;;;5045465;28;20029;-72
2023/07/14 08:06:55;;;;;;;8.98;8.07;;;;;;;;;;5027629;28;20047;-72
2023/07/14 08:09:21;;;;;;;11.63;8.45;;;;;;;;;;5045448;28;20511;-72
2023/07/14 08:11:47;;;;;;;9.15;8.45;;;;;;;;;;5043060;28;20423;-72
2023/07/14 08:14:18;;;;;;;9.35;8.60;;;;;;;;;;5045301;28;20435;-73
2023/07/14 08:16:45;;;;;;;8.95;8.13;;;;;;;;;;5045387;28;20044;-72
2023/07/14 08:19:13;;;;;;;8.68;7.95;;;;;;;;;;5040056;28;20032;-72
2023/07/14 08:21:39;;;;;;;8.45;7.63;;;;;;;;;;5044692;28;20476;-72
2023/07/14 08:24:06;;;;;;;10.68;7.68;;;;;;;;;;5045172;28;20425;-72
2023/07/14 08:26:33;;;;;;;8.68;7.97;;;;;;;;;;5043381;28;20037;-72
2023/07/14 08:28:59;;;;;;;9.50;8.70;;;;;;;;;;5044783;28;20040;-72
2023/07/14 08:31:25;;;;;;;11.23;8.77;;;;;;;;;;5042503;28;20041;-73
2023/07/14 08:33:51;;;;;;;9.13;8.40;;;;;;;;;;5043544;28;20370;-73
2023/07/14 08:36:17;;;;;;;8.88;8.20;;;;;;;;;;5040563;28;20726;-73
2023/07/14 08:38:43;;;;;;;8.77;8.05;;;;;;;;;;5042076;28;20112;-73
2023/07/14 08:41:09;;;;;;;9.48;8.35;;;;;;;;;;5044661;28;20508;-73
2023/07/14 08:43:34;;;;;;;9.10;8.40;;;;;;;;;;5044581;28;20041;-74
2023/07/14 08:46:14;;;;;;;8.60;7.90;;;;;;;;;;5042955;28;20043;-73
2023/07/14 08:48:48;;;;;;;10.15;8.70;;;;;;;;;;5026250;28;20063;-73
2023/07/14 08:51:28;;;;;;;9.40;8.70;;;;;;;;;;5044333;28;20029;-73
2023/07/14 08:54:01;;;;;;;9.73;8.82;;;;;;;;;;5043613;28;20037;-73
2023/07/14 08:56:31;;;;;;;10.15;9.40;;;;;;;;;;5044306;28;20097;-73
2023/07/14 08:58:57;;;;;;;9.82;9.13;;;;;;;;;;5048556;28;20039;-73
2023/07/14 09:01:47;;;;;;;9.98;9.10;;;;;;;;;;5046850;28;20511;-73
2023/07/14 09:04:23;;;;;;;9.82;8.93;;;;;;;;;;5048039;28;20108;-73
2023/07/14 09:06:48;;;;;;;10.43;9.40;;;;;;;;;;5048426;28;20224;-73
2023/07/14 09:09:19;;;;;;;10.05;9.30;;;;;;;;;;5046706;28;20045;-74
2023/07/14 09:11:50;;;;;;;9.55;8.93;;;;;;;;;;5062732;28;20043;-73
2023/07/14 09:14:27;;;;;;;9.75;8.95;;;;;;;;;;5074087;28;20056;-73
2023/07/14 09:17:17;;;;;;;8.98;8.27;;;;;;;;;;5066336;28;20099;-73
2023/07/14 09:20:08;;;;;;;10.13;9.30;;;;;;;;;;5046249;28;20546;-73
2023/07/14 09:22:40;;;;;;;10.35;9.05;;;;;;;;;;5046385;28;20452;-73
2023/07/14 09:25:37;;;;;;;9.82;9.23;;;;;;;;;;5046795;28;20040;-73
2023/07/14 09:28:09;;;;;;;10.60;9.80;;;;;;;;;;5046240;28;20052;-73
2023/07/14 09:30:35;;;;;;;10.85;9.98;;;;;;;;;;5048036;28;20291;-73
2023/07/14 09:33:03;;;;;;;10.05;9.27;;;;;;;;;;5047535;28;20404;-73
2023/07/14 09:35:29;;;;;;;10.30;9.30;;;;;;;;;;5047429;28;20041;-73
2023/07/14 09:38:03;;;;;;;10.13;9.20;;;;;;;;;;5043679;28;20094;-73
2023/07/14 09:40:34;;;;;;;9.82;9.13;;;;;;;;;;5047200;28;20029;-73
2023/07/14 09:43:02;;;;;;;10.27;9.48;;;;;;;;;;5047516;28;20060;-73
2023/07/14 09:45:33;;;;;;;9.80;9.00;;;;;;;;;;5046321;28;20091;-73
2023/07/14 09:48:02;;;;;;;9.52;8.85;;;;;;;;;;5046044;28;20052;-73
2023/07/14 09:50:29;;;;;;;9.90;9.13;;;;;;;;;;5046208;28;20116;-73
2023/07/14 09:53:00;;;;;;;10.52;9.63;;;;;;;;;;5047551;28;20492;-73
2023/07/14 09:55:28;;;;;;;10.23;9.43;;;;;;;;;;5045342;28;20128;-73
2023/07/14 09:57:55;;;;;;;9.38;8.68;;;;;;;;;;5047354;28;20257;-73
2023/07/14 10:00:24;;;;;;;10.10;9.10;;;;;;;;;;5047117;28;20056;-73
2023/07/14 10:02:57;;;;;;;10.02;9.27;;;;;;;;;;5045911;28;20054;-73
2023/07/14 10:05:31;;;;;;;9.75;9.05;;;;;;;;;;5067919;28;20088;-73
2023/07/14 10:07:56;;;;;;;10.35;9.45;;;;;;;;;;5072582;28;20080;-73
2023/07/14 10:10:26;;;;;;;9.98;9.38;;;;;;;;;;5064435;28;20037;-73
2023/07/14 10:12:52;;;;;;;10.48;9.57;;;;;;;;;;5045804;28;20033;-73
2023/07/14 10:15:32;;;;;;;11.07;10.15;;;;;;;;;;5045778;28;20040;-73
2023/07/14 10:18:01;;;;;;;10.80;10.00;;;;;;;;;;5047062;28;20025;-73
2023/07/14 10:20:28;;;;;;;10.18;9.38;;;;;;;;;;5045810;28;20040;-73
2023/07/14 10:22:55;;;;;;;10.75;9.82;;;;;;;;;;5047466;28;20044;-73
2023/07/14 10:25:32;;;;;;;11.15;10.15;;;;;;;;;;5052230;28;20037;-73
2023/07/14 10:28:06;;;;;;;10.40;9.57;;;;;;;;;;5059426;28;20078;-73
2023/07/14 10:30:31;;;;;;;10.23;9.40;;;;;;;;;;5056431;28;20029;-73
2023/07/14 10:33:00;;;;;;;10.88;9.88;;;;;;;;;;5046529;28;20432;-73
2023/07/14 10:35:33;;;;;;;11.20;10.00;;;;;;;;;;5046728;28;20037;-73
2023/07/14 10:38:04;;;;;;;10.80;10.10;;;;;;;;;;5045354;28;20037;-73
2023/07/14 10:40:37;;;;;;;10.88;9.90;;;;;;;;;;5046654;28;20549;-73
2023/07/14 10:43:23;;;;;;;10.85;10.05;;;;;;;;;;5045112;28;20040;-73
2023/07/14 10:45:58;;;;;;;11.13;10.13;;;;;;;;;;5046453;28;20612;-73
2023/07/14 10:48:34;;;;;;;10.85;9.98;;;;;;;;;;5046707;28;20033;-73
2023/07/14 10:51:21;;;;;;;10.57;9.68;;;;;;;;;;5044381;28;20037;-73
2023/07/14 10:53:57;;;;;;;11.75;9.30;;;;;;;;;;5045672;28;20374;-74
2023/07/14 10:56:34;;;;;;;10.23;9.63;;;;;;;;;;5046042;28;20037;-74
2023/07/14 10:59:13;;;;;;;9.60;8.80;;;;;;;;;;5043177;28;20397;-73
2023/07/14 11:01:41;;;;;;;10.10;9.30;;;;;;;;;;5045913;28;20432;-73
2023/07/14 11:04:19;;;;;;;10.68;9.63;;;;;;;;;;5045976;28;20523;-74
2023/07/14 11:06:48;;;;;;;9.68;8.98;;;;;;;;;;5042833;28;20033;-73
2023/07/14 11:09:14;;;;;;;9.88;9.10;;;;;;;;;;5044273;28;20492;-73
2023/07/14 11:11:49;;;;;;;10.07;9.27;;;;;;;;;;5045712;28;20514;-73
2023/07/14 11:14:21;;;;;;;10.13;9.32;;;;;;;;;;5045805;28;20067;-73
2023/07/14 11:17:09;;;;;;;9.57;8.98;;;;;;;;;;5043888;28;20115;-73
2023/07/14 11:19:43;;;;;;;10.82;9.80;;;;;;;;;;5045075;28;20052;-73
2023/07/14 11:22:31;;;;;;;10.18;9.50;;;;;;;;;;5045591;28;20032;-73
2023/07/14 11:25:22;;;;;;;10.52;9.43;;;;;;;;;;5042345;28;20412;-74
2023/07/14 11:28:02;;;;;;;10.48;9.77;;;;;;;;;;5042036;28;20073;-74
2023/07/14 11:30:39;;;;;;;10.70;9.77;;;;;;;;;;5044316;28;20438;-73
2023/07/14 11:33:28;;;;;;;10.95;10.13;;;;;;;;;;5042972;28;20040;-74
2023/07/14 11:36:05;;;;;;;;;;;;;;;;;;5042238;28;20052;-73
2023/07/14 11:38:40;;;;;;;10.82;10.02;;;;;;;;;;5043437;28;19963;-74
2023/07/14 11:41:06;;;;;;;10.77;9.98;;;;;;;;;;5043368;28;20052;-73
2023/07/14 11:43:32;;;;;;;11.02;10.30;;;;;;;;;;5041407;28;20407;-73
2023/07/14 11:46:06;;;;;;;11.55;10.55;;;;;;;;;;5043273;28;20041;-73
2023/07/14 11:48:48;;;;;;;10.88;9.88;;;;;;;;;;5043200;28;20454;-73
2023/07/14 11:51:17;;;;;;;11.23;10.20;;;;;;;;;;5027479;28;20448;-74
2023/07/14 11:54:15;;;;;;;10.68;9.75;;;;;;;;;;5042054;28;20163;-73
2023/07/14 11:56:44;;;;;;;10.48;9.77;;;;;;;;;;5042469;28;20039;-73
2023/07/14 11:59:26;;;;;;;10.52;9.73;;;;;;;;;;5043544;28;20086;-73
2023/07/14 12:01:54;;;;;;;11.07;10.38;;;;;;;;;;5042553;28;20071;-73
2023/07/14 12:04:34;;;;;;;10.65;9.93;;;;;;;;;;5043482;28;20303;-73
2023/07/14 12:07:18;;;;;;;11.10;10.18;;;;;;;;;;5043066;28;20044;-73
2023/07/14 12:10:08;;;;;;;11.38;10.38;;;;;;;;;;5043447;28;20041;-74
2023/07/14 12:12:34;;;;;;;10.82;10.05;;;;;;;;;;5043413;28;20059;-73
2023/07/14 12:15:00;;;;;;;10.73;9.93;;;;;;;;;;5043403;28;20166;-73
2023/07/14 12:17:42;;;;;;;11.18;10.40;;;;;;;;;;5043555;28;20059;-73
2023/07/14 12:20:11;;;;;;;11.05;10.10;;;;;;;;;;5042320;28;20093;-73
2023/07/14 12:22:44;;;;;;;;;;;;;;;;;;5043700;28;20029;-74
2023/07/14 12:25:17;;;;;;;10.32;9.60;;;;;;;;;;5043497;28;20039;-74
2023/07/14 12:27:52;;;;;;;10.00;9.25;;;;;;;;;;5041197;28;20035;-74
2023/07/14 12:30:19;;;;;;;10.70;10.00;;;;;;;;;;5043025;28;20037;-73
2023/07/14 12:32:46;;;;;;;10.40;9.57;;;;;;;;;;5044992;28;20041;-73
2023/07/14 12:35:13;;;;;;;10.60;9.43;;;;;;;;;;5047228;28;20040;-74
2023/07/14 12:37:39;;;;;;;9.90;9.20;;;;;;;;;;5045590;28;20040;-73
2023/07/14 12:40:07;;;;;;;9.82;9.20;;;;;;;;;;5046410;28;20037;-74
2023/07/14 12:42:33;;;;;;;11.15;10.13;;;;;;;;;;5046894;28;20420;-74
2023/07/14 12:44:59;;;;;;;10.85;9.90;;;;;;;;;;5044758;28;20504;-74
2023/07/14 12:47:25;;;;;;;10.80;10.10;;;;;;;;;;5046466;28;20441;-73
2023/07/14 12:49:52;;;;;;;10.93;10.20;;;;;;;;;;5045574;28;20063;-74
2023/07/14 12:52:29;;;;;;;11.00;10.15;;;;;;;;;;5045485;28;20040;-74
2023/07/14 12:55:03;;;;;;;10.82;10.10;;;;;;;;;;5045293;28;20040;-73
2023/07/14 12:57:32;;;;;;;10.88;9.98;;;;;;;;;;5046593;28;20037;-74
2023/07/14 12:59:57;;;;;;;11.40;10.50;;;;;;;;;;5046713;28;20044;-74
2023/07/14 13:02:24;;;;;;;11.60;10.68;;;;;;;;;;5050217;28;20033;-74
2023/07/14 13:04:53;;;;;;;11.20;10.20;;;;;;;;;;5030132;28;20420;-74
2023/07/14 13:07:23;;;;;;;10.88;10.18;;;;;;;;;;5046727;28;20028;-74
2023/07/14 13:10:18;;;;;;;10.68;9.93;;;;;;;;;;5045573;28;20037;-73
2023/07/14 13:12:44;;;;;;;11.95;10.48;;;;;;;;;;5041519;28;20044;-74
2023/07/14 13:15:15;;;;;;;11.98;11.18;;;;;;;;;;5046768;28;20047;-74
2023/07/14 13:17:41;;;;;;;11.48;10.38;;;;;;;;;;5048201;28;20527;-74
2023/07/14 13:20:27;;;;;;;11.43;10.32;;;;;;;;;;5044925;28;20029;-74
2023/07/14 13:23:10;;;;;;;11.15;10.43;;;;;;;;;;5046523;28;20119;-74
2023/07/14 13:25:51;;;;;;;11.13;10.18;;;;;;;;;;5045484;28;20029;-74
2023/07/14 13:28:41;;;;;;;11.55;10.68;;;;;;;;;;5044835;28;20039;-74
2023/07/14 13:31:17;;;;;;;10.65;9.90;;;;;;;;;;5045034;28;20384;-74
2023/07/14 13:33:44;;;;;;;10.77;9.98;;;;;;;;;;5046185;28;20041;-74
2023/07/14 13:36:31;;;;;;;10.48;9.65;;;;;;;;;;5046770;28;20466;-74
2023/07/14 13:38:59;;;;;;;10.23;9.43;;;;;;;;;;5064680;28;20043;-74
2023/07/14 13:41:27;;;;;;;10.82;9.88;;;;;;;;;;5073750;28;20061;-74
2023/07/14 13:44:31;;;;;;;10.57;9.90;;;;;;;;;;5069124;28;20071;-74
2023/07/14 13:47:10;;;;;;;10.80;10.00;;;;;;;;;;5047083;28;20481;-74
2023/07/14 13:49:35;;;;;;;10.82;10.02;;;;;;;;;;5048313;28;20129;-74
2023/07/14 13:52:01;;;;;;;11.07;10.32;;;;;;;;;;5048006;28;20122;-74
2023/07/14 13:54:37;;;;;;;11.23;10.50;;;;;;;;;;5046404;28;20095;-74
2023/07/14 13:57:03;;;;;;;11.00;10.20;;;;;;;;;;5047358;28;20037;-74
2023/07/14 13:59:29;;;;;;;10.93;10.10;;;;;;;;;;5047015;28;20028;-74
2023/07/14 14:01:54;;;;;;;11.43;10.60;;;;;;;;;;5045612;28;20032;-74
2023/07/14 14:04:20;;;;;;;11.10;10.40;;;;;;;;;;5046190;28;20059;-74
2023/07/14 14:06:45;;;;;;;10.85;10.05;;;;;;;;;;5048192;28;20025;-75
2023/07/14 14:09:19;;;;;;;11.00;10.10;;;;;;;;;;5047923;28;20464;-75
2023/07/14 14:11:49;;;;;;;10.50;9.80;;;;;;;;;;5044782;28;20037;-74
2023/07/14 14:14:15;;;;;;;10.40;9.70;;;;;;;;;;5047099;28;20047;-74
2023/07/14 14:16:47;;;;;;;11.25;10.35;;;;;;;;;;5047256;28;20036;-75
2023/07/14 14:19:19;;;;;;;12.80;10.07;;;;;;;;;;5042811;28;20065;-74
2023/07/14 14:21:44;;;;;;;9.95;9.25;;;;;;;;;;5043881;28;20036;-74
2023/07/14 14:24:10;;;;;;;10.65;9.75;;;;;;;;;;5046919;28;20033;-74
2023/07/14 14:26:36;;;;;;;10.68;9.98;;;;;;;;;;5046975;28;20041;-74
2023/07/14 14:29:03;;;;;;;10.85;10.00;;;;;;;;;;5044944;28;20393;-74
2023/07/14 14:31:28;;;;;;;11.35;10.50;;;;;;;;;;5046785;28;20032;-74
2023/07/14 14:33:54;;;;;;;11.07;9.85;;;;;;;;;;5046992;28;20036;-74
2023/07/14 14:36:20;;;;;;;9.90;9.20;;;;;;;;;;5046914;28;20033;-74
2023/07/14 14:38:46;;;;;;;9.90;9.25;;;;;;;;;;5044144;28;20039;-74
2023/07/14 14:41:20;;;;;;;10.18;9.38;;;;;;;;;;5046539;28;20029;-74